createdAt,value
2017-09-22T00:01:08.367Z,1021.26
2017-09-22T00:02:17.208Z,1021.3
2017-09-22T00:03:26.152Z,1021.21
2017-09-22T00:04:34.994Z,1021.25
2017-09-22T00:05:43.842Z,1021.3
2017-09-22T00:06:52.677Z,1021.24
2017-09-22T00:08:01.621Z,1021.22
2017-09-22T00:09:10.664Z,1021.21
2017-09-22T00:10:19.506Z,1021.24
2017-09-22T00:11:28.346Z,1021.26
2017-09-22T00:12:37.187Z,1021.25
2017-09-22T00:13:46.030Z,1021.25
2017-09-22T00:14:55.068Z,1021.15
2017-09-22T00:16:03.908Z,1021.17
2017-09-22T00:17:12.752Z,1021.16
2017-09-22T00:18:21.594Z,1021.14
2017-09-22T00:19:30.438Z,1021.12
2017-09-22T00:20:39.477Z,1021.17
2017-09-22T00:21:48.322Z,1021.14
2017-09-22T00:22:57.164Z,1021.14
2017-09-22T00:24:06.013Z,1021.15
2017-09-22T00:25:14.854Z,1021.16
2017-09-22T00:26:23.845Z,1021.11
2017-09-22T00:27:32.691Z,1021.16
2017-09-22T00:28:41.865Z,1021.12
2017-09-22T00:29:50.707Z,1021.15
2017-09-22T00:30:59.549Z,1021.17
2017-09-22T00:32:08.774Z,1021.13
2017-09-22T00:33:18.413Z,1021.12
2017-09-22T00:34:27.254Z,1021.15
2017-09-22T00:35:36.099Z,1021.11
2017-09-22T00:36:44.940Z,1021.08
2017-09-22T00:37:53.830Z,1021.06
2017-09-22T00:39:02.671Z,1021.11
2017-09-22T00:40:11.514Z,1021.08
2017-09-22T00:41:20.356Z,1021.07
2017-09-22T00:42:29.197Z,1021.06
2017-09-22T00:43:38.192Z,1021.05
2017-09-22T00:44:47.035Z,1020.99
2017-09-22T00:45:55.878Z,1021.01
2017-09-22T00:47:04.718Z,1020.96
2017-09-22T00:48:13.557Z,1020.99
2017-09-22T00:49:22.551Z,1020.99
2017-09-22T00:50:31.390Z,1020.96
2017-09-22T00:51:40.231Z,1020.99
2017-09-22T00:52:49.405Z,1020.97
2017-09-22T00:53:58.246Z,1020.93
2017-09-22T00:55:07.087Z,1020.96
2017-09-22T00:56:15.927Z,1020.96
2017-09-22T00:57:24.767Z,1020.93
2017-09-22T00:58:33.938Z,1020.93
2017-09-22T00:59:42.779Z,1020.94
2017-09-22T01:00:51.920Z,1020.92
2017-09-22T01:02:00.759Z,1020.9
2017-09-22T01:03:09.602Z,1020.92
2017-09-22T01:04:18.444Z,1020.92
2017-09-22T01:05:27.625Z,1020.91
2017-09-22T01:06:36.769Z,1020.89
2017-09-22T01:07:45.610Z,1020.89
2017-09-22T01:08:54.451Z,1020.92
2017-09-22T01:10:03.292Z,1020.89
2017-09-22T01:11:12.131Z,1020.88
2017-09-22T01:12:20.973Z,1020.86
2017-09-22T01:13:29.816Z,1020.88
2017-09-22T01:14:38.657Z,1020.85
2017-09-22T01:15:47.497Z,1020.9
2017-09-22T01:16:56.336Z,1020.9
2017-09-22T01:18:05.576Z,1020.93
2017-09-22T01:19:14.417Z,1020.93
2017-09-22T01:20:23.258Z,1020.92
2017-09-22T01:21:32.434Z,1020.89
2017-09-22T01:22:41.275Z,1020.89
2017-09-22T01:23:50.214Z,1020.87
2017-09-22T01:24:59.054Z,1020.89
2017-09-22T01:26:07.893Z,1020.86
2017-09-22T01:27:16.733Z,1020.78
2017-09-22T01:28:25.577Z,1020.79
2017-09-22T01:29:34.800Z,1020.81
2017-09-22T01:30:43.640Z,1020.75
2017-09-22T01:31:52.817Z,1020.79
2017-09-22T01:33:01.659Z,1020.75
2017-09-22T01:34:10.830Z,1020.73
2017-09-22T01:35:19.772Z,1020.77
2017-09-22T01:36:28.613Z,1020.73
2017-09-22T01:37:37.455Z,1020.74
2017-09-22T01:38:46.297Z,1020.76
2017-09-22T01:39:55.136Z,1020.75
2017-09-22T01:41:04.285Z,1020.74
2017-09-22T01:42:13.121Z,1020.7
2017-09-22T01:43:21.959Z,1020.73
2017-09-22T01:44:30.799Z,1020.74
2017-09-22T01:45:39.641Z,1020.75
2017-09-22T01:46:48.628Z,1020.72
2017-09-22T01:47:57.470Z,1020.75
2017-09-22T01:49:06.312Z,1020.7
2017-09-22T01:50:15.149Z,1020.76
2017-09-22T01:51:23.991Z,1020.77
2017-09-22T01:52:33.417Z,1020.77
2017-09-22T01:53:42.258Z,1020.74
2017-09-22T01:54:51.099Z,1020.74
2017-09-22T01:55:59.941Z,1020.74
2017-09-22T01:57:08.783Z,1020.74
2017-09-22T01:58:17.774Z,1020.75
2017-09-22T01:59:26.615Z,1020.74
2017-09-22T02:00:35.456Z,1020.7
2017-09-22T02:01:44.296Z,1020.73
2017-09-22T02:02:53.142Z,1020.76
2017-09-22T02:04:02.615Z,1020.72
2017-09-22T02:05:11.456Z,1020.72
2017-09-22T02:06:20.295Z,1020.75
2017-09-22T02:07:29.136Z,1020.68
2017-09-22T02:08:37.977Z,1020.65
2017-09-22T02:09:46.868Z,1020.66
2017-09-22T02:10:56.043Z,1020.68
2017-09-22T02:12:04.887Z,1020.7
2017-09-22T02:13:13.728Z,1020.72
2017-09-22T02:14:22.570Z,1020.64
2017-09-22T02:15:31.613Z,1020.66
2017-09-22T02:16:40.556Z,1020.67
2017-09-22T02:17:49.399Z,1020.66
2017-09-22T02:18:58.242Z,1020.72
2017-09-22T02:20:07.083Z,1020.68
2017-09-22T02:21:15.924Z,1020.7
2017-09-22T02:22:24.764Z,1020.68
2017-09-22T02:23:33.607Z,1020.63
2017-09-22T02:24:42.452Z,1020.69
2017-09-22T02:25:51.293Z,1020.69
2017-09-22T02:27:00.387Z,1020.68
2017-09-22T02:28:09.231Z,1020.68
2017-09-22T02:29:18.404Z,1020.68
2017-09-22T02:30:27.250Z,1020.66
2017-09-22T02:31:36.092Z,1020.66
2017-09-22T02:32:44.934Z,1020.68
2017-09-22T02:33:53.776Z,1020.67
2017-09-22T02:35:02.617Z,1020.67
2017-09-22T02:36:11.801Z,1020.67
2017-09-22T02:37:20.642Z,1020.72
2017-09-22T02:38:29.685Z,1020.68
2017-09-22T02:39:38.528Z,1020.76
2017-09-22T02:40:47.370Z,1020.71
2017-09-22T02:41:56.215Z,1020.79
2017-09-22T02:43:05.056Z,1020.77
2017-09-22T02:44:14.054Z,1020.81
2017-09-22T02:45:23.226Z,1020.75
2017-09-22T02:46:32.067Z,1020.81
2017-09-22T02:47:40.910Z,1020.8
2017-09-22T02:48:49.749Z,1020.82
2017-09-22T02:49:58.792Z,1020.87
2017-09-22T02:51:07.632Z,1020.87
2017-09-22T02:52:16.474Z,1020.88
2017-09-22T02:53:25.315Z,1020.91
2017-09-22T02:54:34.155Z,1020.93
2017-09-22T02:55:43.300Z,1020.92
2017-09-22T02:56:52.142Z,1020.95
2017-09-22T02:58:00.986Z,1020.92
2017-09-22T02:59:09.826Z,1020.86
2017-09-22T03:00:18.670Z,1020.86
2017-09-22T03:01:27.812Z,1020.86
2017-09-22T03:02:36.986Z,1020.81
2017-09-22T03:03:45.826Z,1020.81
2017-09-22T03:04:54.666Z,1020.8
2017-09-22T03:06:03.507Z,1020.82
2017-09-22T03:07:12.397Z,1020.84
2017-09-22T03:08:21.237Z,1020.8
2017-09-22T03:09:30.078Z,1020.79
2017-09-22T03:10:38.920Z,1020.83
2017-09-22T03:11:47.761Z,1020.82
2017-09-22T03:12:56.753Z,1020.81
2017-09-22T03:14:05.594Z,1020.82
2017-09-22T03:15:14.436Z,1020.77
2017-09-22T03:16:23.276Z,1020.79
2017-09-22T03:17:32.115Z,1020.77
2017-09-22T03:18:41.008Z,1020.74
2017-09-22T03:19:49.845Z,1020.74
2017-09-22T03:20:58.691Z,1020.73
2017-09-22T03:22:07.526Z,1020.74
2017-09-22T03:23:16.365Z,1020.68
2017-09-22T03:24:25.259Z,1020.7
2017-09-22T03:25:34.101Z,1020.72
2017-09-22T03:26:42.943Z,1020.68
2017-09-22T03:27:51.782Z,1020.7
2017-09-22T03:29:00.625Z,1020.73
2017-09-22T03:30:09.767Z,1020.71
2017-09-22T03:31:18.605Z,1020.76
2017-09-22T03:32:27.448Z,1020.71
2017-09-22T03:33:36.288Z,1020.73
2017-09-22T03:34:45.130Z,1020.69
2017-09-22T03:35:54.371Z,1020.72
2017-09-22T03:37:03.213Z,1020.74
2017-09-22T03:38:12.053Z,1020.74
2017-09-22T03:39:20.894Z,1020.72
2017-09-22T03:40:29.736Z,1020.75
2017-09-22T03:41:38.730Z,1020.76
2017-09-22T03:42:47.570Z,1020.71
2017-09-22T03:43:56.414Z,1020.74
2017-09-22T03:45:05.264Z,1020.72
2017-09-22T03:46:14.100Z,1020.69
2017-09-22T03:47:23.041Z,1020.68
2017-09-22T03:48:31.882Z,1020.65
2017-09-22T03:49:40.727Z,1020.69
2017-09-22T03:50:49.905Z,1020.7
2017-09-22T03:51:58.745Z,1020.68
2017-09-22T03:53:07.741Z,1020.7
2017-09-22T03:54:16.584Z,1020.7
2017-09-22T03:55:25.425Z,1020.74
2017-09-22T03:56:34.264Z,1020.71
2017-09-22T03:57:43.103Z,1020.73
2017-09-22T03:58:52.196Z,1020.72
2017-09-22T04:00:01.039Z,1020.7
2017-09-22T04:01:09.877Z,1020.72
2017-09-22T04:02:18.716Z,1020.66
2017-09-22T04:03:27.558Z,1020.68
2017-09-22T04:04:36.549Z,1020.7
2017-09-22T04:05:45.391Z,1020.63
2017-09-22T04:06:54.230Z,1020.65
2017-09-22T04:08:03.069Z,1020.64
2017-09-22T04:09:11.911Z,1020.67
2017-09-22T04:10:21.384Z,1020.63
2017-09-22T04:11:30.223Z,1020.68
2017-09-22T04:12:39.066Z,1020.65
2017-09-22T04:13:48.247Z,1020.7
2017-09-22T04:14:57.417Z,1020.7
2017-09-22T04:16:06.407Z,1020.7
2017-09-22T04:17:15.248Z,1020.73
2017-09-22T04:18:24.118Z,1020.7
2017-09-22T04:19:32.928Z,1020.71
2017-09-22T04:20:41.768Z,1020.69
2017-09-22T04:21:50.992Z,1020.69
2017-09-22T04:22:59.835Z,1020.68
2017-09-22T04:24:08.680Z,1020.65
2017-09-22T04:25:17.852Z,1020.68
2017-09-22T04:26:26.691Z,1020.7
2017-09-22T04:27:35.784Z,1020.66
2017-09-22T04:28:44.631Z,1020.67
2017-09-22T04:29:53.808Z,1020.69
2017-09-22T04:31:02.644Z,1020.67
2017-09-22T04:32:11.484Z,1020.66
2017-09-22T04:33:20.475Z,1020.67
2017-09-22T04:34:29.317Z,1020.62
2017-09-22T04:35:38.155Z,1020.61
2017-09-22T04:36:46.996Z,1020.59
2017-09-22T04:37:55.838Z,1020.58
2017-09-22T04:39:04.780Z,1020.59
2017-09-22T04:40:13.621Z,1020.61
2017-09-22T04:41:22.462Z,1020.57
2017-09-22T04:42:31.304Z,1020.57
2017-09-22T04:43:40.146Z,1020.56
2017-09-22T04:44:49.084Z,1020.54
2017-09-22T04:45:57.926Z,1020.49
2017-09-22T04:47:06.765Z,1020.54
2017-09-22T04:48:15.604Z,1020.48
2017-09-22T04:49:24.445Z,1020.5
2017-09-22T04:50:33.432Z,1020.48
2017-09-22T04:51:42.271Z,1020.48
2017-09-22T04:52:51.113Z,1020.51
2017-09-22T04:53:59.952Z,1020.51
2017-09-22T04:55:08.792Z,1020.53
2017-09-22T04:56:17.737Z,1020.52
2017-09-22T04:57:26.579Z,1020.55
2017-09-22T04:58:35.417Z,1020.51
2017-09-22T04:59:44.259Z,1020.57
2017-09-22T05:00:53.102Z,1020.6
2017-09-22T05:02:02.094Z,1020.53
2017-09-22T05:03:10.940Z,1020.55
2017-09-22T05:04:19.785Z,1020.51
2017-09-22T05:05:28.625Z,1020.49
2017-09-22T05:06:37.470Z,1020.5
2017-09-22T05:07:46.651Z,1020.49
2017-09-22T05:08:55.496Z,1020.51
2017-09-22T05:10:04.342Z,1020.5
2017-09-22T05:11:13.184Z,1020.52
2017-09-22T05:12:22.026Z,1020.47
2017-09-22T05:13:30.967Z,1020.48
2017-09-22T05:14:39.811Z,1020.42
2017-09-22T05:15:48.653Z,1020.41
2017-09-22T05:16:57.499Z,1020.47
2017-09-22T05:18:06.347Z,1020.41
2017-09-22T05:19:15.386Z,1020.41
2017-09-22T05:20:24.232Z,1020.4
2017-09-22T05:21:33.077Z,1020.41
2017-09-22T05:22:41.927Z,1020.4
2017-09-22T05:23:50.770Z,1020.38
2017-09-22T05:24:59.613Z,1020.4
2017-09-22T05:26:08.456Z,1020.43
2017-09-22T05:27:17.296Z,1020.46
2017-09-22T05:28:26.139Z,1020.47
2017-09-22T05:29:34.982Z,1020.5
2017-09-22T05:30:44.074Z,1020.5
2017-09-22T05:31:52.918Z,1020.53
2017-09-22T05:33:01.761Z,1020.57
2017-09-22T05:34:10.604Z,1020.54
2017-09-22T05:35:19.777Z,1020.55
2017-09-22T05:36:28.770Z,1020.56
2017-09-22T05:37:37.614Z,1020.55
2017-09-22T05:38:46.458Z,1020.56
2017-09-22T05:39:55.303Z,1020.58
2017-09-22T05:41:04.146Z,1020.55
2017-09-22T05:42:13.289Z,1020.65
2017-09-22T05:43:22.133Z,1020.65
2017-09-22T05:44:30.977Z,1020.61
2017-09-22T05:45:39.816Z,1020.63
2017-09-22T05:46:48.661Z,1020.64
2017-09-22T05:47:57.805Z,1020.6
2017-09-22T05:49:06.647Z,1020.61
2017-09-22T05:50:15.492Z,1020.61
2017-09-22T05:51:24.338Z,1020.61
2017-09-22T05:52:33.182Z,1020.59
2017-09-22T05:53:42.028Z,1020.55
2017-09-22T05:54:50.872Z,1020.62
2017-09-22T05:55:59.713Z,1020.66
2017-09-22T05:57:08.890Z,1020.62
2017-09-22T05:58:17.734Z,1020.63
2017-09-22T05:59:26.729Z,1020.65
2017-09-22T06:00:35.904Z,1020.7
2017-09-22T06:01:44.748Z,1020.7
2017-09-22T06:02:53.595Z,1020.71
2017-09-22T06:04:02.439Z,1020.71
2017-09-22T06:05:11.382Z,1020.76
2017-09-22T06:06:20.225Z,1020.75
2017-09-22T06:07:29.397Z,1020.75
2017-09-22T06:08:38.239Z,1020.74
2017-09-22T06:09:47.082Z,1020.74
2017-09-22T06:10:56.175Z,1020.74
2017-09-22T06:12:05.020Z,1020.77
2017-09-22T06:13:13.864Z,1020.74
2017-09-22T06:14:22.710Z,1020.76
2017-09-22T06:15:31.555Z,1020.73
2017-09-22T06:16:40.884Z,1020.71
2017-09-22T06:17:49.722Z,1020.7
2017-09-22T06:18:58.564Z,1020.72
2017-09-22T06:20:07.407Z,1020.72
2017-09-22T06:21:16.248Z,1020.78
2017-09-22T06:22:25.139Z,1020.77
2017-09-22T06:23:33.985Z,1020.77
2017-09-22T06:24:42.826Z,1020.76
2017-09-22T06:25:51.999Z,1020.79
2017-09-22T06:27:00.843Z,1020.82
2017-09-22T06:28:09.735Z,1020.85
2017-09-22T06:29:18.578Z,1020.83
2017-09-22T06:30:27.417Z,1020.81
2017-09-22T06:31:36.260Z,1020.84
2017-09-22T06:32:45.101Z,1020.82
2017-09-22T06:33:53.945Z,1020.84
2017-09-22T06:35:02.791Z,1020.78
2017-09-22T06:36:11.633Z,1020.81
2017-09-22T06:37:20.804Z,1020.83
2017-09-22T06:38:29.647Z,1020.86
2017-09-22T06:39:38.639Z,1020.84
2017-09-22T06:40:47.817Z,1020.87
2017-09-22T06:41:56.658Z,1020.91
2017-09-22T06:43:05.833Z,1020.92
2017-09-22T06:44:14.676Z,1020.93
2017-09-22T06:45:23.520Z,1020.94
2017-09-22T06:46:32.365Z,1020.92
2017-09-22T06:47:41.204Z,1020.95
2017-09-22T06:48:50.045Z,1020.99
2017-09-22T06:49:58.893Z,1020.99
2017-09-22T06:51:08.164Z,1020.98
2017-09-22T06:52:17.009Z,1021.02
2017-09-22T06:53:25.849Z,1020.98
2017-09-22T06:54:34.691Z,1021.01
2017-09-22T06:55:43.536Z,1021.04
2017-09-22T06:56:52.429Z,1021.04
2017-09-22T06:58:01.270Z,1021.02
2017-09-22T06:59:10.117Z,1021.05
2017-09-22T07:00:18.955Z,1021.01
2017-09-22T07:01:27.797Z,1021.02
2017-09-22T07:02:36.738Z,1021.08
2017-09-22T07:03:45.580Z,1021.05
2017-09-22T07:04:54.422Z,1021.07
2017-09-22T07:06:03.268Z,1021.05
2017-09-22T07:07:12.118Z,1021.08
2017-09-22T07:08:21.109Z,1021.04
2017-09-22T07:09:29.951Z,1021.09
2017-09-22T07:10:38.797Z,1021.07
2017-09-22T07:11:47.638Z,1021.07
2017-09-22T07:12:56.481Z,1021.07
2017-09-22T07:14:05.716Z,1021.08
2017-09-22T07:15:14.560Z,1021.1
2017-09-22T07:16:23.405Z,1021.13
2017-09-22T07:17:32.247Z,1021.15
2017-09-22T07:18:41.089Z,1021.14
2017-09-22T07:19:50.233Z,1021.2
2017-09-22T07:20:59.077Z,1021.21
2017-09-22T07:22:07.921Z,1021.18
2017-09-22T07:23:16.764Z,1021.17
2017-09-22T07:24:25.609Z,1021.21
2017-09-22T07:25:34.751Z,1021.17
2017-09-22T07:26:43.596Z,1021.16
2017-09-22T07:27:52.441Z,1021.13
2017-09-22T07:29:01.286Z,1021.13
2017-09-22T07:30:10.129Z,1021.14
2017-09-22T07:31:19.023Z,1021.1
2017-09-22T07:32:27.865Z,1021.13
2017-09-22T07:33:36.708Z,1021.14
2017-09-22T07:34:45.552Z,1021.19
2017-09-22T07:35:54.395Z,1021.18
2017-09-22T07:37:03.437Z,1021.19
2017-09-22T07:38:12.280Z,1021.18
2017-09-22T07:39:21.121Z,1021.19
2017-09-22T07:40:29.962Z,1021.22
2017-09-22T07:41:38.805Z,1021.23
2017-09-22T07:42:47.805Z,1021.23
2017-09-22T07:43:56.643Z,1021.25
2017-09-22T07:45:05.487Z,1021.24
2017-09-22T07:46:14.333Z,1021.24
2017-09-22T07:47:23.176Z,1021.26
2017-09-22T07:48:32.170Z,1021.26
2017-09-22T07:49:41.021Z,1021.25
2017-09-22T07:50:49.861Z,1021.18
2017-09-22T07:51:58.704Z,1021.24
2017-09-22T07:53:07.551Z,1021.18
2017-09-22T07:54:16.597Z,1021.23
2017-09-22T07:55:25.442Z,1021.21
2017-09-22T07:56:34.286Z,1021.23
2017-09-22T07:57:43.131Z,1021.18
2017-09-22T07:58:51.974Z,1021.21
2017-09-22T08:00:00.918Z,1021.23
2017-09-22T08:01:09.764Z,1021.2
2017-09-22T08:02:18.610Z,1021.21
2017-09-22T08:03:27.453Z,1021.22
2017-09-22T08:04:36.634Z,1021.19
2017-09-22T08:05:45.578Z,1021.22
2017-09-22T08:06:54.422Z,1021.19
2017-09-22T08:08:03.266Z,1021.21
2017-09-22T08:09:12.111Z,1021.19
2017-09-22T08:10:20.955Z,1021.21
2017-09-22T08:11:29.847Z,1021.22
2017-09-22T08:12:38.690Z,1021.27
2017-09-22T08:13:47.536Z,1021.23
2017-09-22T08:14:56.381Z,1021.21
2017-09-22T08:16:05.556Z,1021.21
2017-09-22T08:17:14.500Z,1021.21
2017-09-22T08:18:23.345Z,1021.19
2017-09-22T08:19:32.191Z,1021.16
2017-09-22T08:20:41.037Z,1021.13
2017-09-22T08:21:49.883Z,1021.14
2017-09-22T08:22:58.779Z,1021.16
2017-09-22T08:24:07.954Z,1021.19
2017-09-22T08:25:16.798Z,1021.2
2017-09-22T08:26:25.642Z,1021.23
2017-09-22T08:27:34.488Z,1021.26
2017-09-22T08:28:43.632Z,1021.26
2017-09-22T08:29:52.476Z,1021.3
2017-09-22T08:31:01.320Z,1021.3
2017-09-22T08:32:10.162Z,1021.33
2017-09-22T08:33:19.010Z,1021.32
2017-09-22T08:34:28.104Z,1021.29
2017-09-22T08:35:36.952Z,1021.22
2017-09-22T08:36:45.797Z,1021.28
2017-09-22T08:37:54.988Z,1021.27
2017-09-22T08:39:03.833Z,1021.27
2017-09-22T08:40:12.878Z,1021.24
2017-09-22T08:41:21.723Z,1021.25
2017-09-22T08:42:30.569Z,1021.22
2017-09-22T08:43:39.415Z,1021.21
2017-09-22T08:44:48.457Z,1021.19
2017-09-22T08:45:57.454Z,1021.18
2017-09-22T08:47:06.301Z,1021.22
2017-09-22T08:48:15.148Z,1021.18
2017-09-22T08:49:23.996Z,1021.18
2017-09-22T08:50:32.841Z,1021.22
2017-09-22T08:51:41.739Z,1021.24
2017-09-22T08:52:50.583Z,1021.19
2017-09-22T08:53:59.428Z,1021.22
2017-09-22T08:55:08.272Z,1021.21
2017-09-22T08:56:17.117Z,1021.21
2017-09-22T08:57:26.071Z,1021.2
2017-09-22T08:58:35.250Z,1021.18
2017-09-22T08:59:44.099Z,1021.24
2017-09-22T09:00:52.945Z,1021.23
2017-09-22T09:02:01.793Z,1021.2
2017-09-22T09:03:10.970Z,1021.22
2017-09-22T09:04:19.817Z,1021.19
2017-09-22T09:05:28.665Z,1021.22
2017-09-22T09:06:37.511Z,1021.21
2017-09-22T09:07:46.358Z,1021.22
2017-09-22T09:08:55.253Z,1021.22
2017-09-22T09:10:04.101Z,1021.2
2017-09-22T09:11:12.947Z,1021.2
2017-09-22T09:12:21.791Z,1021.24
2017-09-22T09:13:30.637Z,1021.25
2017-09-22T09:14:39.685Z,1021.26
2017-09-22T09:15:48.530Z,1021.28
2017-09-22T09:16:57.375Z,1021.3
2017-09-22T09:18:06.225Z,1021.33
2017-09-22T09:19:15.073Z,1021.29
2017-09-22T09:20:24.071Z,1021.3
2017-09-22T09:21:32.918Z,1021.3
2017-09-22T09:22:41.774Z,1021.31
2017-09-22T09:23:50.623Z,1021.31
2017-09-22T09:24:59.468Z,1021.32
2017-09-22T09:26:08.414Z,1021.34
2017-09-22T09:27:17.264Z,1021.34
2017-09-22T09:28:26.113Z,1021.33
2017-09-22T09:29:34.959Z,1021.35
2017-09-22T09:30:44.138Z,1021.32
2017-09-22T09:31:53.183Z,1021.36
2017-09-22T09:33:02.031Z,1021.36
2017-09-22T09:34:10.877Z,1021.35
2017-09-22T09:35:19.724Z,1021.32
2017-09-22T09:36:28.570Z,1021.35
2017-09-22T09:37:37.565Z,1021.29
2017-09-22T09:38:46.415Z,1021.33
2017-09-22T09:39:55.261Z,1021.3
2017-09-22T09:41:04.107Z,1021.34
2017-09-22T09:42:12.958Z,1021.31
2017-09-22T09:43:22.102Z,1021.32
2017-09-22T09:44:30.950Z,1021.35
2017-09-22T09:45:39.801Z,1021.31
2017-09-22T09:46:48.649Z,1021.34
2017-09-22T09:47:57.497Z,1021.34
2017-09-22T09:49:06.443Z,1021.35
2017-09-22T09:50:15.290Z,1021.35
2017-09-22T09:51:24.138Z,1021.37
2017-09-22T09:52:32.984Z,1021.38
2017-09-22T09:53:41.831Z,1021.38
2017-09-22T09:54:50.980Z,1021.37
2017-09-22T09:55:59.826Z,1021.36
2017-09-22T09:57:08.671Z,1021.38
2017-09-22T09:58:17.519Z,1021.36
2017-09-22T09:59:27.443Z,1021.39
2017-09-22T10:00:37.534Z,1021.36
2017-09-22T10:01:48.411Z,1021.37
2017-09-22T10:02:58.915Z,1021.36
2017-09-22T10:04:09.800Z,1021.4
2017-09-22T10:05:20.295Z,1021.38
2017-09-22T10:06:31.033Z,1021.35
2017-09-22T10:07:40.601Z,1021.34
2017-09-22T10:08:52.059Z,1021.32
2017-09-22T10:10:02.908Z,1021.35
2017-09-22T10:11:13.555Z,1021.32
2017-09-22T10:12:24.750Z,1021.34
2017-09-22T10:13:35.479Z,1021.36
2017-09-22T10:14:45.967Z,1021.34
2017-09-22T10:15:56.798Z,1021.35
2017-09-22T10:18:47.422Z,1021.29
2017-09-22T10:19:56.274Z,1021.31
2017-09-22T10:21:05.123Z,1021.32
2017-09-22T10:22:13.974Z,1021.26
2017-09-22T10:23:22.977Z,1021.26
2017-09-22T10:24:31.825Z,1021.28
2017-09-22T10:25:41.010Z,1021.31
2017-09-22T10:26:49.859Z,1021.3
2017-09-22T10:27:58.716Z,1021.26
2017-09-22T10:29:07.617Z,1021.27
2017-09-22T10:30:16.460Z,1021.25
2017-09-22T10:31:25.307Z,1021.31
2017-09-22T10:32:34.155Z,1021.26
2017-09-22T10:33:43.002Z,1021.26
2017-09-22T10:34:51.950Z,1021.22
2017-09-22T10:36:00.797Z,1021.22
2017-09-22T10:37:09.982Z,1021.24
2017-09-22T10:38:18.836Z,1021.21
2017-09-22T10:39:28.013Z,1021.17
2017-09-22T10:40:36.912Z,1021.18
2017-09-22T10:41:46.094Z,1021.2
2017-09-22T10:42:54.943Z,1021.15
2017-09-22T10:44:03.788Z,1021.17
2017-09-22T10:45:12.637Z,1021.13
2017-09-22T10:46:21.534Z,1021.14
2017-09-22T10:47:30.382Z,1021.12
2017-09-22T10:48:39.231Z,1021.14
2017-09-22T10:49:48.080Z,1021.13
2017-09-22T10:50:56.928Z,1021.12
2017-09-22T10:52:05.978Z,1021.16
2017-09-22T10:53:14.827Z,1021.17
2017-09-22T10:54:23.677Z,1021.16
2017-09-22T10:55:32.527Z,1021.16
2017-09-22T10:56:41.378Z,1021.16
2017-09-22T10:57:50.278Z,1021.17
2017-09-22T10:58:59.130Z,1021.15
2017-09-22T11:00:07.979Z,1021.17
2017-09-22T11:01:16.828Z,1021.19
2017-09-22T11:02:25.677Z,1021.18
2017-09-22T11:03:34.624Z,1021.24
2017-09-22T11:04:43.475Z,1021.21
2017-09-22T11:05:52.321Z,1021.22
2017-09-22T11:07:01.169Z,1021.27
2017-09-22T11:08:10.022Z,1021.25
2017-09-22T11:09:19.025Z,1021.25
2017-09-22T11:10:27.868Z,1021.25
2017-09-22T11:11:36.718Z,1021.22
2017-09-22T11:12:45.568Z,1021.2
2017-09-22T11:13:54.417Z,1021.23
2017-09-22T11:15:03.418Z,1021.21
2017-09-22T11:16:12.266Z,1021.19
2017-09-22T11:17:21.113Z,1021.21
2017-09-22T11:18:29.962Z,1021.18
2017-09-22T11:19:38.813Z,1021.21
2017-09-22T11:20:47.710Z,1021.2
2017-09-22T11:21:56.557Z,1021.2
2017-09-22T11:23:05.406Z,1021.17
2017-09-22T11:24:14.255Z,1021.15
2017-09-22T11:25:23.104Z,1021.18
2017-09-22T11:26:32.103Z,1021.21
2017-09-22T11:27:40.954Z,1021.16
2017-09-22T11:28:49.803Z,1021.15
2017-09-22T11:29:58.652Z,1021.19
2017-09-22T11:31:07.503Z,1021.19
2017-09-22T11:32:16.403Z,1021.22
2017-09-22T11:33:25.254Z,1021.19
2017-09-22T11:34:34.104Z,1021.2
2017-09-22T11:35:42.954Z,1021.18
2017-09-22T11:36:51.801Z,1021.21
2017-09-22T11:38:00.853Z,1021.2
2017-09-22T11:39:09.701Z,1021.21
2017-09-22T11:40:18.553Z,1021.17
2017-09-22T11:41:27.400Z,1021.15
2017-09-22T11:42:36.246Z,1021.16
2017-09-22T11:43:45.746Z,1021.14
2017-09-22T11:44:54.595Z,1021.15
2017-09-22T11:46:03.442Z,1021.15
2017-09-22T11:47:12.294Z,1021.15
2017-09-22T11:48:21.479Z,1021.18
2017-09-22T11:49:30.579Z,1021.14
2017-09-22T11:50:39.432Z,1021.13
2017-09-22T11:51:48.614Z,1021.16
2017-09-22T11:52:57.465Z,1021.13
2017-09-22T11:54:06.314Z,1021.15
2017-09-22T11:55:15.213Z,1021.09
2017-09-22T11:56:24.064Z,1021.13
2017-09-22T11:57:32.920Z,1021.12
2017-09-22T11:58:41.777Z,1021.1
2017-09-22T11:59:50.626Z,1021.07
2017-09-22T12:00:59.490Z,1021.05
2017-09-22T12:02:08.343Z,1021.01
2017-09-22T12:03:17.200Z,1021.05
2017-09-22T12:04:26.051Z,1021.05
2017-09-22T12:05:34.901Z,1021.02
2017-09-22T12:06:43.758Z,1021.01
2017-09-22T12:07:52.607Z,1021
2017-09-22T12:09:01.497Z,1021
2017-09-22T12:10:10.311Z,1020.97
2017-09-22T12:11:19.160Z,1020.93
2017-09-22T12:12:28.009Z,1020.92
2017-09-22T12:13:36.871Z,1020.93
2017-09-22T12:14:46.074Z,1020.94
2017-09-22T12:15:54.921Z,1020.94
2017-09-22T12:17:03.771Z,1020.95
2017-09-22T12:18:12.954Z,1020.98
2017-09-22T12:19:21.804Z,1020.99
2017-09-22T12:20:30.657Z,1020.97
2017-09-22T12:21:39.617Z,1020.97
2017-09-22T12:22:48.474Z,1020.96
2017-09-22T12:23:57.335Z,1020.98
2017-09-22T12:25:06.534Z,1020.99
2017-09-22T12:26:15.397Z,1020.98
2017-09-22T12:27:24.407Z,1020.98
2017-09-22T12:28:33.258Z,1021.01
2017-09-22T12:29:42.109Z,1021
2017-09-22T12:30:50.955Z,1021.02
2017-09-22T12:31:59.843Z,1021
2017-09-22T12:33:08.695Z,1020.98
2017-09-22T12:34:17.546Z,1021.01
2017-09-22T12:35:26.396Z,1021
2017-09-22T12:36:35.247Z,1021
2017-09-22T12:37:44.097Z,1020.97
2017-09-22T12:38:53.107Z,1021.02
2017-09-22T12:40:01.964Z,1021.03
2017-09-22T12:41:10.806Z,1021.02
2017-09-22T12:42:19.993Z,1021
2017-09-22T12:43:28.846Z,1021.03
2017-09-22T12:44:37.746Z,1021
2017-09-22T12:45:46.600Z,1021.03
2017-09-22T12:46:55.620Z,1021.02
2017-09-22T12:48:04.469Z,1020.99
2017-09-22T12:49:13.325Z,1020.98
2017-09-22T12:50:22.426Z,1020.96
2017-09-22T12:51:31.283Z,1020.95
2017-09-22T12:52:40.471Z,1020.94
2017-09-22T12:53:49.321Z,1020.91
2017-09-22T12:54:58.171Z,1020.94
2017-09-22T12:56:07.123Z,1020.92
2017-09-22T12:57:15.975Z,1020.94
2017-09-22T12:58:24.826Z,1020.94
2017-09-22T12:59:33.678Z,1020.91
2017-09-22T13:00:42.530Z,1020.98
2017-09-22T13:01:51.502Z,1020.96
2017-09-22T13:03:00.350Z,1020.99
2017-09-22T13:04:09.202Z,1020.99
2017-09-22T13:05:18.062Z,1020.98
2017-09-22T13:06:26.911Z,1020.97
2017-09-22T13:07:36.345Z,1021.03
2017-09-22T13:08:45.500Z,1020.97
2017-09-22T13:09:54.350Z,1021.04
2017-09-22T13:11:03.201Z,1020.98
2017-09-22T13:12:12.048Z,1020.98
2017-09-22T13:13:20.999Z,1021.01
2017-09-22T13:14:30.179Z,1020.98
2017-09-22T13:15:39.030Z,1020.99
2017-09-22T13:16:47.883Z,1020.96
2017-09-22T13:17:56.782Z,1020.98
2017-09-22T13:19:06.205Z,1021.01
2017-09-22T13:20:15.060Z,1021.04
2017-09-22T13:21:23.908Z,1021.03
2017-09-22T13:22:32.792Z,1021.03
2017-09-22T13:23:41.610Z,1021.01
2017-09-22T13:24:50.566Z,1021
2017-09-22T13:25:59.445Z,1021.01
2017-09-22T13:27:08.302Z,1021.03
2017-09-22T13:28:17.187Z,1021.03
2017-09-22T13:29:26.372Z,1021.01
2017-09-22T13:30:35.274Z,1021.02
2017-09-22T13:31:44.129Z,1021.05
2017-09-22T13:32:53.448Z,1021.04
2017-09-22T13:34:02.318Z,1021.04
2017-09-22T13:35:11.169Z,1021.04
2017-09-22T13:36:20.271Z,1021.05
2017-09-22T13:37:29.124Z,1021.05
2017-09-22T13:38:37.974Z,1021.09
2017-09-22T13:39:46.825Z,1021.02
2017-09-22T13:40:55.674Z,1021.01
2017-09-22T13:42:04.776Z,1021.05
2017-09-22T13:43:13.625Z,1021.06
2017-09-22T13:44:22.473Z,1021.08
2017-09-22T13:45:31.657Z,1021.08
2017-09-22T13:46:40.509Z,1021.06
2017-09-22T13:47:49.509Z,1021.08
2017-09-22T13:48:58.375Z,1021.09
2017-09-22T13:50:07.231Z,1021.07
2017-09-22T13:51:16.084Z,1021.05
2017-09-22T13:52:24.976Z,1021.08
2017-09-22T13:53:33.951Z,1021.04
2017-09-22T13:54:42.828Z,1021.05
2017-09-22T13:55:51.703Z,1021.06
2017-09-22T13:57:00.553Z,1021.05
2017-09-22T13:58:09.412Z,1021.03
2017-09-22T13:59:18.510Z,1021.07